Time;durP1;ratioP1;P1;durP2;ratioP2;P2;SDS_P1;SDS_P2;PMS_P1;PMS_P2;Temp;Humidity;BMP_temperature;BMP_pressure;BME280_temperature;BME280_humidity;BME280_pressure;Samples;Min_cycle;Max_cycle;Signal;HPM_P1;HPM_P2
2022/05/18 00:00:44;;;;;;;10.88;5.68;;;;;;;18.12;63.35;101891.03;4976987;28;100959;-34
2022/05/18 00:03:11;;;;;;;13.45;5.72;;;;;;;18.11;63.16;101900.22;4993246;28;101664;-34
2022/05/18 00:05:38;;;;;;;13.45;6.18;;;;;;;18.08;63.41;101902.34;4977092;28;96880;-34
2022/05/18 00:08:05;;;;;;;8.43;5.20;;;;;;;18.06;63.58;101898.84;4977320;28;96834;-34
2022/05/18 00:10:31;;;;;;;12.23;5.13;;;;;;;17.92;63.73;101883.44;4994126;28;98939;-34
2022/05/18 00:12:57;;;;;;;15.40;5.88;;;;;;;17.94;64.21;101895.16;4994623;28;97202;-34
2022/05/18 00:15:25;;;;;;;15.60;6.57;;;;;;;17.98;64.34;101908.53;4994498;28;96660;-33
2022/05/18 00:17:51;;;;;;;10.95;5.57;;;;;;;17.90;63.85;101904.59;4996526;28;97059;-34
2022/05/18 00:20:18;;;;;;;12.15;5.35;;;;;;;17.88;64.05;101903.88;4996011;28;101181;-34
2022/05/18 00:22:50;;;;;;;13.27;5.97;;;;;;;17.87;64.88;101913.06;5013020;28;100912;-34
2022/05/18 00:25:16;;;;;;;9.85;5.30;;;;;;;17.85;63.95;101909.56;5013451;28;96560;-34
2022/05/18 00:27:42;;;;;;;14.43;6.10;;;;;;;17.81;64.29;101918.03;5003012;28;97123;-34
2022/05/18 00:30:09;;;;;;;10.07;5.53;;;;;;;17.81;64.37;101908.94;5020643;28;108244;-34
2022/05/18 00:32:34;;;;;;;11.63;5.43;;;;;;;17.74;64.61;101905.75;5021152;28;99907;-34
2022/05/18 00:34:59;;;;;;;11.75;5.22;;;;;;;17.71;64.51;101905.06;5021176;28;96535;-34
2022/05/18 00:37:25;;;;;;;8.30;5.15;;;;;;;17.69;65.45;101909.81;5020746;28;96959;-34
2022/05/18 00:39:50;;;;;;;14.82;5.75;;;;;;;17.62;65.13;101895.69;5019270;28;126968;-34
2022/05/18 00:42:21;;;;;;;12.13;5.38;;;;;;;17.64;65.62;101904.69;5001851;28;122793;-34
2022/05/18 00:44:46;;;;;;;17.48;7.00;;;;;;;17.66;64.86;101897.19;5003057;28;96560;-34
2022/05/18 00:47:12;;;;;;;14.65;6.30;;;;;;;17.66;65.74;101910.03;5020802;28;96850;-34
2022/05/18 00:49:38;;;;;;;14.52;5.75;;;;;;;17.67;65.61;101909.06;5020771;28;97891;-34
2022/05/18 00:52:04;;;;;;;11.80;6.43;;;;;;;17.61;64.55;101900.31;5019147;28;100935;-34
2022/05/18 00:54:31;;;;;;;16.00;6.40;;;;;;;17.62;64.77;101910.28;5021168;28;96543;-34
2022/05/18 00:57:00;;;;;;;12.05;6.07;;;;;;;17.55;65.20;101888.94;5003209;28;96934;-34
2022/05/18 00:59:31;;;;;;;14.95;7.13;;;;;;;17.57;64.64;101879.59;5019706;28;123592;-34
2022/05/18 01:01:59;;;;;;;14.40;6.18;;;;;;;17.59;64.79;101882.22;5002502;28;100497;-34
2022/05/18 01:04:26;;;;;;;13.20;6.25;;;;;;;17.67;65.18;101898.97;5002274;28;96601;-34
2022/05/18 01:07:07;;;;;;;11.50;6.07;;;;;;;17.66;66.21;101891.72;5002762;28;96866;-34
2022/05/18 01:09:37;;;;;;;13.93;7.15;;;;;;;17.65;65.54;101897.34;5002533;28;101146;-34
2022/05/18 01:12:03;;;;;;;15.90;7.03;;;;;;;17.68;66.35;101900.72;5020140;28;97893;-34
2022/05/18 01:14:44;;;;;;;12.10;6.60;;;;;;;17.65;65.50;101908.28;5002669;28;96472;-34
2022/05/18 01:17:11;;;;;;;15.30;6.32;;;;;;;17.58;65.59;101894.19;5006959;28;96818;-34
2022/05/18 01:19:46;;;;;;;12.70;6.20;;;;;;;17.59;66.10;101902.28;4998925;28;100999;-34
2022/05/18 01:22:41;;;;;;;13.40;5.97;;;;;;;17.56;66.79;101907.09;4999384;28;100803;-34
2022/05/18 01:25:36;;;;;;;10.35;5.97;;;;;;;17.56;66.09;101907.09;5001059;28;96647;-34
2022/05/18 01:28:04;;;;;;;14.13;6.57;;;;;;;17.52;66.34;101913.78;4984006;28;96791;-34
2022/05/18 01:30:30;;;;;;;12.10;6.10;;;;;;;17.42;66.18;101894.44;4965385;28;101193;-34
2022/05/18 01:32:57;;;;;;;13.88;6.60;;;;;;;17.46;65.99;101901.44;4982289;28;101590;-34
2022/05/18 01:35:27;;;;;;;14.55;7.15;;;;;;;17.39;66.36;101900.13;4982718;28;96583;-34
2022/05/18 01:37:57;;;;;;;14.90;6.53;;;;;;;17.34;66.26;101892.25;4979605;28;96920;-34
2022/05/18 01:40:37;;;;;;;15.43;6.65;;;;;;;17.39;66.72;101901.00;4997056;28;97985;-34
2022/05/18 01:43:23;;;;;;;12.88;6.70;;;;;;;17.33;66.85;101887.78;4997211;28;97305;-34
2022/05/18 01:45:50;;;;;;;11.98;6.32;;;;;;;17.34;66.76;101889.53;4979186;28;96589;-34
2022/05/18 01:48:18;;;;;;;14.07;6.88;;;;;;;17.35;66.52;101888.56;4979266;28;96830;-34
2022/05/18 01:50:43;;;;;;;12.63;7.03;;;;;;;17.37;66.43;101900.25;4978674;28;101938;-34
2022/05/18 01:53:10;;;;;;;11.15;6.53;;;;;;;17.29;66.59;101883.50;4996764;28;97892;-34
2022/05/18 01:55:36;;;;;;;12.30;6.38;;;;;;;17.29;66.92;101885.38;4996650;28;96566;-34
2022/05/18 01:58:13;;;;;;;12.48;6.80;;;;;;;17.30;67.57;101885.25;4978896;28;96735;-34
2022/05/18 02:00:39;;;;;;;12.55;6.80;;;;;;;17.27;66.68;101881.88;4978440;28;100921;-34
2022/05/18 02:03:05;;;;;;;14.32;6.70;;;;;;;17.22;66.87;101879.47;4978438;28;100925;-34
2022/05/18 02:05:30;;;;;;;12.55;6.65;;;;;;;17.26;66.67;101888.34;4996966;28;96596;-34
2022/05/18 02:07:57;;;;;;;12.95;6.07;;;;;;;17.25;66.75;101881.97;4997071;28;96803;-34
2022/05/18 02:10:23;;;;;;;11.30;6.47;;;;;;;17.23;66.70;101883.94;4978472;28;101039;-34
2022/05/18 02:12:49;;;;;;;14.75;7.13;;;;;;;17.17;66.99;101873.47;4978565;28;101392;-34
2022/05/18 02:15:14;;;;;;;12.35;6.57;;;;;;;17.18;66.62;101873.34;4996883;28;96472;-34
2022/05/18 02:17:40;;;;;;;13.35;6.57;;;;;;;17.21;66.91;101877.72;4995846;28;96878;-34
2022/05/18 02:20:06;;;;;;;16.48;6.57;;;;;;;17.16;66.94;101866.22;4995594;28;97322;-34
2022/05/18 02:22:32;;;;;;;21.40;7.20;;;;;;;17.14;67.02;101865.47;4996230;28;99137;-34
2022/05/18 02:24:57;;;;;;;14.88;7.80;;;;;;;17.15;66.85;101881.78;4996580;28;99639;-34
2022/05/18 02:27:22;;;;;;;12.80;7.35;;;;;;;17.17;67.07;101889.88;4995505;28;117150;-34
2022/05/18 02:29:48;;;;;;;15.45;7.45;;;;;;;17.17;67.48;101893.50;4995206;28;127385;-34
2022/05/18 02:32:13;;;;;;;11.73;6.53;;;;;;;17.14;67.10;101887.38;4996199;28;96694;-34
2022/05/18 02:34:38;;;;;;;12.70;7.18;;;;;;;17.19;67.47;101904.34;4995132;28;96564;-34
2022/05/18 02:37:04;;;;;;;16.90;7.43;;;;;;;17.17;67.62;101901.72;4995764;28;115914;-34
2022/05/18 02:39:30;;;;;;;18.38;7.45;;;;;;;17.18;67.20;101905.31;4996119;28;98359;-34
2022/05/18 02:41:55;;;;;;;13.27;7.35;;;;;;;17.13;67.78;101904.78;4996252;28;97403;-34
2022/05/18 02:44:21;;;;;;;15.77;7.10;;;;;;;17.13;67.27;101902.91;4994327;28;96587;-34
2022/05/18 02:46:47;;;;;;;17.77;7.88;;;;;;;17.12;67.42;101897.56;4996059;28;96916;-34
2022/05/18 02:49:12;;;;;;;21.08;7.60;;;;;;;17.10;68.00;101894.06;4995489;28;109578;-34
2022/05/18 02:51:41;;;;;;;12.07;6.68;;;;;;;17.11;67.58;101901.28;4995542;28;99201;-34
2022/05/18 02:56:05;;;;;;;13.27;7.20;;;;;;;17.13;68.35;101915.72;4995923;28;96470;-34
2022/05/18 02:56:54;;;;;;;15.60;7.57;;;;;;;17.10;67.97;101924.16;4995960;28;96693;-34
2022/05/18 02:59:21;;;;;;;16.77;7.53;;;;;;;17.06;68.74;101933.59;4977514;28;100805;-34
2022/05/18 03:01:47;;;;;;;12.73;6.68;;;;;;;17.01;68.56;101933.91;4977967;28;101336;-34
2022/05/18 03:04:13;;;;;;;15.38;7.32;;;;;;;17.02;68.10;101918.34;4977953;28;96560;-34
2022/05/18 03:06:38;;;;;;;15.40;7.82;;;;;;;17.03;67.72;101948.38;4977835;28;96878;-34
2022/05/18 03:09:04;;;;;;;17.58;7.85;;;;;;;17.05;67.93;101954.63;4995527;28;97338;-34
2022/05/18 03:11:29;;;;;;;17.42;7.53;;;;;;;17.11;69.08;101947.81;4977340;28;100831;-34
2022/05/18 03:13:54;;;;;;;17.15;7.78;;;;;;;17.13;70.63;101924.81;4995515;28;96614;-34
2022/05/18 03:16:20;;;;;;;16.30;8.43;;;;;;;17.16;68.61;101942.88;4994132;28;96924;-34
2022/05/18 03:18:45;;;;;;;16.73;7.40;;;;;;;17.16;68.48;101927.34;4995205;28;100020;-34
2022/05/18 03:23:55;;;;;;;17.45;8.05;;;;;;;17.29;68.87;101951.97;4995918;28;96508;-34
2022/05/18 03:26:23;;;;;;;20.70;8.32;;;;;;;17.32;68.76;101951.75;4995896;28;96825;-34
2022/05/18 03:28:50;;;;;;;18.08;8.60;;;;;;;17.32;68.01;101948.13;4977109;28;101186;-34
2022/05/18 03:31:16;;;;;;;16.17;7.93;;;;;;;17.31;68.18;101947.25;4977139;28;100979;-34
2022/05/18 03:33:42;;;;;;;23.58;9.20;;;;;;;17.37;67.82;101957.75;4993523;28;96627;-34
2022/05/18 03:36:12;;;;;;;17.65;7.25;;;;;;;17.36;67.77;101953.28;4995405;28;96536;-34
2022/05/18 03:38:38;;;;;;;18.15;8.10;;;;;;;17.36;67.54;101956.03;4976788;28;98988;-34
2022/05/18 03:41:03;;;;;;;15.82;7.32;;;;;;;17.28;67.46;101944.75;4977391;28;97420;-34
2022/05/18 03:43:29;;;;;;;19.67;8.77;;;;;;;17.28;68.02;101955.72;4994379;28;116422;-34
2022/05/18 03:45:54;;;;;;;15.20;7.65;;;;;;;17.26;67.91;101948.59;4995291;28;96742;-34
2022/05/18 03:48:19;;;;;;;13.80;7.72;;;;;;;17.23;68.15;101949.66;4995209;28;98052;-34
2022/05/18 03:50:48;;;;;;;18.70;8.23;;;;;;;17.31;68.97;101958.22;4995046;28;99552;-34
2022/05/18 03:53:13;;;;;;;18.85;8.48;;;;;;;17.33;68.20;101966.34;4977199;28;96805;-34
2022/05/18 03:55:41;;;;;;;18.02;9.18;;;;;;;17.30;68.62;101955.59;4994970;28;96802;-34
2022/05/18 03:58:06;;;;;;;17.45;7.70;;;;;;;17.23;67.99;101946.94;4992686;28;100725;-34
2022/05/18 04:00:33;;;;;;;13.48;7.55;;;;;;;17.32;67.97;101951.75;4994157;28;97837;-34
2022/05/18 04:02:59;;;;;;;22.13;9.73;;;;;;;17.35;68.30;101958.84;4993543;28;96621;-34
2022/05/18 04:05:24;;;;;;;19.27;8.00;;;;;;;17.32;68.05;101951.75;4994991;28;96821;-34
2022/05/18 04:07:50;;;;;;;24.50;8.65;;;;;;;17.35;68.13;101956.13;4994375;28;98748;-34
2022/05/18 04:10:17;;;;;;;19.38;8.63;;;;;;;17.36;67.82;101958.75;4993468;28;126424;-34
2022/05/18 04:12:43;;;;;;;17.95;7.90;;;;;;;17.37;67.73;101949.53;4993255;28;96917;-34
2022/05/18 04:15:11;;;;;;;16.50;8.13;;;;;;;17.39;68.14;101952.19;4995066;28;96843;-34
2022/05/18 04:17:37;;;;;;;20.27;8.30;;;;;;;17.46;67.18;101955.34;4976335;28;100979;-34
2022/05/18 04:20:05;;;;;;;17.60;7.82;;;;;;;17.51;67.51;101956.75;4994439;28;97782;-34
2022/05/18 04:22:32;;;;;;;17.48;8.05;;;;;;;17.54;67.36;101955.66;4975938;28;96631;-34
2022/05/18 04:25:01;;;;;;;18.27;8.10;;;;;;;17.62;66.75;101972.44;4976741;28;97206;-34
2022/05/18 04:27:28;;;;;;;22.30;8.18;;;;;;;17.59;67.30;101967.16;4976560;28;100699;-34
2022/05/18 04:29:54;;;;;;;17.60;8.70;;;;;;;17.60;67.10;101972.53;4976395;28;100550;-34
2022/05/18 04:32:20;;;;;;;15.75;8.65;;;;;;;17.67;67.47;101970.22;4994708;28;96612;-34
2022/05/18 04:34:48;;;;;;;18.67;8.48;;;;;;;17.70;67.60;101978.19;4993266;28;96715;-34
2022/05/18 04:37:13;;;;;;;20.05;8.48;;;;;;;17.72;66.92;101973.50;4994296;28;98091;-34
2022/05/18 04:39:39;;;;;;;18.85;8.48;;;;;;;17.78;66.92;101989.50;4994588;28;97858;-34
2022/05/18 04:42:04;;;;;;;16.52;7.53;;;;;;;17.75;67.26;101975.13;4993935;28;116939;-34
2022/05/18 04:44:30;;;;;;;16.60;8.25;;;;;;;17.78;66.79;101980.38;4994655;28;96875;-34
2022/05/18 04:46:56;;;;;;;20.05;8.18;;;;;;;17.80;66.78;101993.03;4993673;28;99361;-34
2022/05/18 04:49:21;;;;;;;24.13;8.75;;;;;;;17.81;67.12;101994.78;4976213;28;100848;-34
2022/05/18 04:51:47;;;;;;;20.05;8.23;;;;;;;17.79;67.42;101993.97;4993745;28;99044;-34
2022/05/18 04:54:12;;;;;;;25.05;9.55;;;;;;;17.78;67.44;101991.34;4993903;28;99814;-34
2022/05/18 04:56:37;;;;;;;17.50;8.48;;;;;;;17.86;67.23;102007.28;4991585;28;126777;-34
2022/05/18 04:59:02;;;;;;;20.00;9.77;;;;;;;17.85;67.72;102002.75;4992760;28;128901;-34
2022/05/18 05:01:30;;;;;;;20.80;9.30;;;;;;;17.87;68.22;102009.00;4993563;28;116801;-34
2022/05/18 05:03:55;;;;;;;23.33;9.27;;;;;;;17.91;67.44;102016.03;4993386;28;96883;-34
2022/05/18 05:06:20;;;;;;;15.90;7.78;;;;;;;17.90;69.19;102022.47;4994138;28;97863;-34
2022/05/18 05:08:46;;;;;;;17.85;7.82;;;;;;;17.92;68.91;102006.81;4993149;28;127091;-34
2022/05/18 05:11:11;;;;;;;18.08;8.00;;;;;;;17.90;68.05;101998.72;4993442;28;96563;-34
2022/05/18 05:13:36;;;;;;;25.00;8.13;;;;;;;17.99;70.55;102013.56;4995316;28;117808;-34
2022/05/18 05:16:07;;;;;;;15.05;8.00;;;;;;;17.99;68.29;102003.47;4996909;28;97127;-34
2022/05/18 05:18:33;;;;;;;14.95;6.78;;;;;;;18.03;68.13;102005.00;4979244;28;101203;-34
2022/05/18 05:20:58;;;;;;;15.65;7.18;;;;;;;18.11;68.41;102012.66;4997173;28;97321;-34
2022/05/18 05:23:24;;;;;;;11.70;6.10;;;;;;;18.19;68.84;102018.47;4997634;28;96783;-34
2022/05/18 05:25:51;;;;;;;12.50;6.13;;;;;;;18.17;67.73;102011.34;4979180;28;101091;-34
2022/05/18 05:28:17;;;;;;;12.35;5.90;;;;;;;18.29;68.03;102018.63;4979469;28;101155;-34
2022/05/18 05:30:42;;;;;;;15.32;6.38;;;;;;;18.36;69.58;102032.78;4997351;28;96628;-34
2022/05/18 05:33:07;;;;;;;11.77;5.10;;;;;;;18.37;68.54;102031.78;4997328;28;96871;-34
2022/05/18 05:35:33;;;;;;;12.57;5.53;;;;;;;18.42;69.55;102040.53;4996349;28;98537;-34
2022/05/18 05:37:58;;;;;;;12.50;5.18;;;;;;;18.38;70.75;102030.78;4995713;28;98925;-34
2022/05/18 05:40:24;;;;;;;15.15;5.43;;;;;;;18.43;68.86;102034.06;4996299;28;116983;-34
2022/05/18 05:42:49;;;;;;;14.40;5.30;;;;;;;18.52;68.68;102037.94;4997098;28;96927;-34
2022/05/18 05:45:15;;;;;;;12.00;4.40;;;;;;;18.47;69.41;102041.03;4996322;28;117502;-34
2022/05/18 05:47:40;;;;;;;9.45;4.03;;;;;;;18.52;69.23;102041.59;4996749;28;97716;-34
2022/05/18 05:50:07;;;;;;;9.40;3.50;;;;;;;18.50;70.00;102040.84;4996176;28;111213;-34
2022/05/18 05:52:32;;;;;;;9.27;4.05;;;;;;;18.47;69.59;102041.03;4979491;28;96894;-34
2022/05/18 05:54:59;;;;;;;9.07;4.18;;;;;;;18.55;71.73;102059.69;4996737;28;97953;-34
2022/05/18 05:57:24;;;;;;;10.35;3.83;;;;;;;18.53;69.38;102059.81;4996662;28;99412;-34
2022/05/18 05:59:50;;;;;;;7.50;3.60;;;;;;;18.51;70.58;102050.81;4996517;28;96494;-34
2022/05/18 06:02:16;;;;;;;11.63;4.40;;;;;;;18.59;70.26;102063.94;4997009;28;96828;-34
2022/05/18 06:04:42;;;;;;;7.95;4.00;;;;;;;18.61;69.61;102067.44;4996368;28;97889;-34
2022/05/18 06:07:08;;;;;;;8.13;4.03;;;;;;;18.62;70.65;102082.94;4978603;28;101246;-34
2022/05/18 06:09:34;;;;;;;12.63;4.18;;;;;;;18.71;69.82;102084.09;4997031;28;96551;-34
2022/05/18 06:11:59;;;;;;;9.07;4.13;;;;;;;18.80;70.13;102078.78;4996627;28;99656;-34
2022/05/18 06:14:25;;;;;;;9.27;4.22;;;;;;;18.88;69.72;102078.22;4996465;28;97515;-34
2022/05/18 06:16:50;;;;;;;13.55;5.22;;;;;;;19.09;68.78;102092.13;4995201;28;126332;-34
2022/05/18 06:19:17;;;;;;;11.85;4.45;;;;;;;19.23;68.62;102094.69;4996353;28;96733;-34
2022/05/18 06:21:44;;;;;;;16.52;4.70;;;;;;;19.37;68.17;102090.00;4978269;28;96972;-34
2022/05/18 06:24:09;;;;;;;12.30;3.83;;;;;;;19.52;68.01;102091.50;4977254;28;100869;-34
2022/05/18 06:26:36;;;;;;;9.07;3.47;;;;;;;19.67;67.28;102092.19;4996090;28;99066;-34
2022/05/18 06:29:03;;;;;;;9.10;3.30;;;;;;;19.77;66.45;102090.47;4995193;28;96551;-34
2022/05/18 06:31:29;;;;;;;11.38;3.08;;;;;;;19.76;66.69;102091.47;4977896;28;96916;-35
2022/05/18 06:33:54;;;;;;;7.45;2.85;;;;;;;19.76;66.99;102098.81;4995905;28;97524;-34
2022/05/18 06:36:19;;;;;;;6.78;2.70;;;;;;;19.83;66.26;102103.72;4994979;28;126532;-34
2022/05/18 06:38:44;;;;;;;9.82;3.20;;;;;;;19.97;66.26;102102.56;4995281;28;115908;-34
2022/05/18 06:41:28;;;;;;;13.52;3.38;;;;;;;20.18;65.53;102123.84;4995552;28;111423;-34
2022/05/18 06:43:56;;;;;;;8.95;3.40;;;;;;;20.24;65.19;102113.22;4994451;28;100987;-34
2022/05/18 06:46:24;;;;;;;10.13;3.42;;;;;;;20.31;65.06;102119.97;4995368;28;99287;-34
2022/05/18 06:48:50;;;;;;;6.43;3.05;;;;;;;20.44;65.23;102129.94;4977443;28;96689;-34
2022/05/18 06:51:21;;;;;;;7.78;3.05;;;;;;;20.54;64.52;102131.78;4996236;28;96785;-34
2022/05/18 06:53:51;;;;;;;6.55;2.75;;;;;;;20.61;64.04;102128.56;4977858;28;101062;-34
2022/05/18 06:56:19;;;;;;;12.55;3.47;;;;;;;20.57;64.01;102128.84;4994358;28;101097;-34
2022/05/18 06:58:47;;;;;;;8.27;3.15;;;;;;;20.45;64.11;102127.09;4977552;28;96681;-34
2022/05/18 07:01:13;;;;;;;6.40;2.67;;;;;;;20.45;63.90;102134.44;4978006;28;96871;-34
2022/05/18 07:03:39;;;;;;;9.07;3.17;;;;;;;20.66;63.76;102135.44;4977614;28;101085;-34
2022/05/18 07:06:04;;;;;;;7.55;3.33;;;;;;;20.73;63.34;102131.16;4996074;28;97612;-34
2022/05/18 07:08:30;;;;;;;12.40;4.05;;;;;;;20.92;63.08;102140.63;4995743;28;96567;-34
2022/05/18 07:10:55;;;;;;;7.80;3.30;;;;;;;21.01;63.10;102145.34;4995490;28;96829;-34
2022/05/18 07:13:21;;;;;;;9.18;3.33;;;;;;;21.08;62.77;102126.44;4994430;28;115161;-34
2022/05/18 07:15:47;;;;;;;7.68;3.53;;;;;;;21.27;62.15;102145.88;4995136;28;97812;-34
2022/05/18 07:18:13;;;;;;;13.50;3.50;;;;;;;21.34;61.86;102127.78;4995897;28;96623;-34
2022/05/18 07:20:39;;;;;;;7.60;3.08;;;;;;;21.45;61.56;102131.53;4977256;28;96876;-34
2022/05/18 07:23:04;;;;;;;10.68;3.40;;;;;;;21.54;61.36;102126.06;4995152;28;99841;-34
2022/05/18 07:25:30;;;;;;;9.93;3.35;;;;;;;21.72;60.88;102136.50;4995341;28;96888;-34
2022/05/18 07:27:56;;;;;;;12.95;4.57;;;;;;;21.77;60.71;102126.81;4995578;28;96634;-34
2022/05/18 07:30:21;;;;;;;5.25;2.80;;;;;;;21.97;60.18;102135.19;4995441;28;101854;-34
2022/05/18 07:32:46;;;;;;;11.50;3.40;;;;;;;22.02;60.46;102149.44;4994656;28;115208;-34
2022/05/18 07:35:12;;;;;;;10.43;3.50;;;;;;;22.05;60.30;102149.19;4994139;28;99130;-34
2022/05/18 07:37:37;;;;;;;8.13;3.20;;;;;;;22.11;59.98;102150.50;4994453;28;96522;-34
2022/05/18 07:40:03;;;;;;;12.88;3.75;;;;;;;22.19;59.42;102161.72;4994906;28;96885;-34
2022/05/18 07:42:29;;;;;;;17.20;4.50;;;;;;;22.19;60.22;102164.47;4994745;28;99241;-34
2022/05/18 07:44:54;;;;;;;11.93;3.35;;;;;;;22.24;59.73;102174.16;4994079;28;127185;-34
2022/05/18 07:47:30;;;;;;;11.88;3.70;;;;;;;22.36;58.97;102169.41;4995485;28;96749;-34
2022/05/18 07:49:56;;;;;;;12.25;3.65;;;;;;;22.44;59.60;102172.31;4977208;28;96866;-34
2022/05/18 07:52:21;;;;;;;14.43;4.30;;;;;;;22.43;59.49;102173.34;4994399;28;116850;-34
2022/05/18 07:54:47;;;;;;;7.28;3.50;;;;;;;22.60;59.08;102182.84;4995163;28;97477;-34
2022/05/18 07:57:13;;;;;;;11.25;4.30;;;;;;;22.64;58.96;102177.91;4993610;28;96687;-34
2022/05/18 07:59:38;;;;;;;17.20;4.43;;;;;;;22.79;58.25;102186.69;4994780;28;96947;-34
2022/05/18 08:02:04;;;;;;;14.02;4.45;;;;;;;22.83;58.00;102180.72;4994439;28;97450;-34
2022/05/18 08:04:29;;;;;;;9.50;3.97;;;;;;;22.92;58.42;102190.06;4976653;28;100983;-34
2022/05/18 08:06:55;;;;;;;7.53;3.65;;;;;;;23.02;57.49;102179.91;4994225;28;107103;-34
2022/05/18 08:09:22;;;;;;;11.63;4.63;;;;;;;23.13;57.78;102191.88;4994914;28;96857;-34
2022/05/18 08:17:18;;;;;;;18.50;4.07;;;;;;;23.23;56.54;102199.13;4993930;28;96778;-34
2022/05/18 08:19:44;;;;;;;13.95;4.50;;;;;;;23.21;57.00;102198.41;4995114;28;96823;-34
2022/05/18 08:22:10;;;;;;;17.15;4.38;;;;;;;23.33;56.87;102207.44;4993908;28;99443;-34
2022/05/18 08:24:44;;;;;;;11.93;4.78;;;;;;;23.37;56.48;102211.66;4994522;28;97787;-34
2022/05/18 08:27:15;;;;;;;18.10;4.65;;;;;;;23.41;55.80;102209.50;4994097;28;96525;-34
2022/05/18 08:29:41;;;;;;;16.65;5.63;;;;;;;23.46;56.37;102215.47;4994609;28;96801;-34
2022/05/18 08:32:06;;;;;;;18.02;5.15;;;;;;;23.57;56.06;102220.81;4993544;28;124138;-34
2022/05/18 08:34:31;;;;;;;14.68;5.32;;;;;;;23.68;55.76;102209.63;4993879;28;99364;-34
2022/05/18 08:36:57;;;;;;;21.42;5.78;;;;;;;23.77;55.63;102212.56;4994867;28;96500;-34
2022/05/18 08:39:22;;;;;;;17.08;4.80;;;;;;;23.87;55.47;102222.59;4994383;28;96846;-34
2022/05/18 08:41:49;;;;;;;17.33;5.82;;;;;;;23.99;54.75;102220.53;4992163;28;122060;-34
2022/05/18 08:44:28;;;;;;;11.48;5.00;;;;;;;24.07;54.80;102222.53;4994542;28;97814;-34
2022/05/18 08:47:11;;;;;;;18.63;4.68;;;;;;;24.15;54.40;102226.31;4995147;28;96630;-35
2022/05/18 08:49:57;;;;;;;11.10;4.32;;;;;;;24.23;54.45;102233.00;4996602;28;97020;-34
2022/05/18 08:52:38;;;;;;;16.17;5.68;;;;;;;24.32;54.15;102229.34;4997213;28;99709;-34
2022/05/18 08:55:18;;;;;;;15.60;5.18;;;;;;;24.32;53.98;102232.97;4997606;28;99921;-34
2022/05/18 08:57:46;;;;;;;17.05;5.40;;;;;;;24.35;53.70;102227.13;4998090;28;96440;-34
2022/05/18 09:00:18;;;;;;;17.65;5.70;;;;;;;24.38;53.75;102229.63;4979765;28;96938;-34
2022/05/18 09:02:46;;;;;;;17.23;5.18;;;;;;;24.46;53.56;102217.81;4997277;28;99743;-34
2022/05/18 09:05:29;;;;;;;15.07;6.05;;;;;;;24.55;53.15;102219.66;4997494;28;97925;-34
2022/05/18 09:08:05;;;;;;;29.35;6.05;;;;;;;24.66;52.64;102226.03;4979541;28;96823;-34
2022/05/18 09:10:36;;;;;;;12.88;5.18;;;;;;;24.75;52.72;102238.97;4998207;28;96666;-34
2022/05/18 09:13:02;;;;;;;17.47;5.17;;;;;;;24.74;53.30;102212.25;4979598;28;101123;-34
2022/05/18 09:15:56;;;;;;;16.02;5.38;;;;;;;24.98;51.70;102226.44;4997304;28;97920;-34
2022/05/18 09:18:43;;;;;;;9.63;4.47;;;;;;;25.06;51.68;102238.66;4965793;28;97062;-34
2022/05/18 09:21:23;;;;;;;16.60;5.15;;;;;;;25.01;50.54;102233.56;4997486;28;96624;-34
2022/05/18 09:23:55;;;;;;;21.50;5.63;;;;;;;25.11;51.60;102227.94;4979371;28;100912;-34
2022/05/18 09:26:39;;;;;;;15.13;5.88;;;;;;;25.23;51.22;102239.72;4979051;28;100687;-34
2022/05/18 09:29:10;;;;;;;15.43;5.28;;;;;;;25.33;51.17;102235.84;4979346;28;96606;-34
2022/05/18 09:31:52;;;;;;;13.80;5.32;;;;;;;25.37;50.47;102234.50;4979465;28;96863;-34
2022/05/18 09:34:44;;;;;;;15.35;4.97;;;;;;;25.45;50.06;102241.16;4979138;28;101090;-34
2022/05/18 09:37:25;;;;;;;11.05;5.10;;;;;;;25.58;50.39;102238.88;4979115;28;100544;-34
2022/05/18 09:40:01;;;;;;;12.43;5.03;;;;;;;25.55;49.92;102225.28;4997170;28;96564;-34
2022/05/18 09:42:31;;;;;;;20.63;5.97;;;;;;;25.59;50.07;102233.13;4995854;28;96797;-34
2022/05/18 09:45:11;;;;;;;15.95;5.63;;;;;;;25.70;49.51;102239.50;4978324;28;101055;-34
2022/05/18 09:47:55;;;;;;;15.88;4.38;;;;;;;25.68;49.46;102234.09;4978612;28;102335;-34
2022/05/18 09:50:21;;;;;;;16.77;4.97;;;;;;;25.90;48.71;102243.84;4980930;28;96668;-34
2022/05/18 09:52:48;;;;;;;19.45;5.88;;;;;;;25.88;49.56;102225.63;4997139;28;96852;-34
2022/05/18 09:55:18;;;;;;;17.65;5.60;;;;;;;26.06;48.62;102234.78;4978678;28;101249;-34
2022/05/18 09:58:13;;;;;;;15.75;4.95;;;;;;;26.11;48.47;102242.63;4995163;28;101342;-35
2022/05/18 10:00:40;;;;;;;11.55;4.75;;;;;;;26.07;48.64;102244.84;4978797;28;96730;-34
2022/05/18 10:08:53;;;;;;;16.10;5.30;;;;;;;26.23;48.24;102221.88;4996778;28;97040;-34
2022/05/18 10:11:32;;;;;;;20.98;5.68;;;;;;;26.45;47.91;102228.75;4995989;28;96745;-34
2022/05/18 10:14:14;;;;;;;20.63;5.55;;;;;;;26.47;46.75;102238.69;4995350;28;96763;-34
2022/05/18 10:16:41;;;;;;;10.23;4.18;;;;;;;26.58;47.98;102243.13;4977642;28;100816;-34
2022/05/18 10:19:32;;;;;;;18.23;4.32;;;;;;;26.65;47.11;102238.66;4978136;28;100933;-34
2022/05/18 10:22:01;;;;;;;14.33;4.37;;;;;;;26.67;47.92;102242.13;4996335;28;96717;-34
2022/05/18 10:24:29;;;;;;;11.45;4.25;;;;;;;26.74;47.32;102241.44;4978497;28;96801;-34
2022/05/18 10:27:06;;;;;;;16.95;4.50;;;;;;;26.49;45.42;102241.31;4996019;28;99573;-34
2022/05/18 10:29:31;;;;;;;13.20;4.47;;;;;;;26.71;46.87;102236.22;4978513;28;100646;-34
2022/05/18 10:32:09;;;;;;;10.85;3.90;;;;;;;26.84;46.70;102236.63;4996565;28;96663;-34
2022/05/18 10:34:47;;;;;;;8.77;3.97;;;;;;;26.92;45.13;102241.38;4978550;28;96796;-34
2022/05/18 10:37:23;;;;;;;12.55;3.05;;;;;;;27.03;45.26;102241.03;4995738;28;97815;-34
2022/05/18 10:39:49;;;;;;;14.98;3.60;;;;;;;27.17;45.92;102237.59;4977856;28;100840;-34
2022/05/18 10:42:31;;;;;;;13.75;3.22;;;;;;;27.31;43.85;102238.88;4996218;28;96606;-33
2022/05/18 10:45:01;;;;;;;10.07;3.80;;;;;;;27.19;43.99;102227.19;4996097;28;96826;-34
2022/05/18 10:47:48;;;;;;;14.00;3.28;;;;;;;27.30;45.80;102223.25;4994547;28;100804;-34
2022/05/18 10:50:32;;;;;;;10.70;3.28;;;;;;;27.41;43.92;102236.84;4996050;28;97343;-33
2022/05/18 10:53:20;;;;;;;8.02;2.92;;;;;;;27.33;45.21;102223.75;4994400;28;96796;-33
2022/05/18 10:55:57;;;;;;;10.63;2.97;;;;;;;27.07;43.97;102209.94;5007006;28;96937;-34
2022/05/18 10:58:34;;;;;;;10.60;2.90;;;;;;;26.62;45.43;102227.84;5012441;28;99214;-34
2022/05/18 11:01:15;;;;;;;8.30;2.58;;;;;;;26.27;44.98;102238.06;4995303;28;100785;-34
2022/05/18 11:03:55;;;;;;;7.57;2.10;;;;;;;25.98;45.28;102234.72;5012005;28;96707;-34
2022/05/18 11:06:34;;;;;;;5.13;1.90;;;;;;;25.82;47.28;102221.56;5014386;28;96795;-34
2022/05/18 11:09:02;;;;;;;6.63;1.80;;;;;;;25.74;46.54;102238.13;5014284;28;100825;-34
2022/05/18 11:11:45;;;;;;;6.35;1.85;;;;;;;25.68;45.51;102239.66;4996181;28;100978;-35
2022/05/18 11:14:43;;;;;;;4.00;1.75;;;;;;;25.73;44.11;102236.41;4997049;28;97022;-34
2022/05/18 11:17:23;;;;;;;3.33;1.67;;;;;;;25.81;45.28;102237.34;5015142;28;97548;-34
2022/05/18 11:20:00;;;;;;;5.93;2.25;;;;;;;26.04;44.84;102234.94;5015593;28;97314;-34
2022/05/18 11:22:29;;;;;;;5.93;1.85;;;;;;;26.16;45.11;102238.31;5014067;28;101003;-34
2022/05/18 11:25:20;;;;;;;9.23;2.00;;;;;;;26.33;44.11;102241.19;5015224;28;102901;-34
2022/05/18 11:27:51;;;;;;;6.10;1.80;;;;;;;26.40;44.75;102239.50;5014247;28;96791;-34
2022/05/18 11:30:31;;;;;;;4.80;1.90;;;;;;;26.49;44.32;102230.19;5014898;28;97301;-34
2022/05/18 11:33:38;;;;;;;4.55;1.83;;;;;;;26.58;43.97;102220.88;4998335;28;101133;-34
2022/05/18 11:36:20;;;;;;;8.10;2.20;;;;;;;26.73;43.50;102212.78;5015567;28;96459;-34
2022/05/18 11:39:20;;;;;;;7.05;2.00;;;;;;;26.91;44.06;102226.59;5015051;28;108704;-34
2022/05/18 11:42:20;;;;;;;4.80;1.85;;;;;;;26.76;43.24;102219.91;4996870;28;101331;-34